Time;durP1;ratioP1;P1;durP2;ratioP2;P2;SDS_P1;SDS_P2;PMS_P1;PMS_P2;Temp;Humidity;BMP_temperature;BMP_pressure;BME280_temperature;BME280_humidity;BME280_pressure;Samples;Min_cycle;Max_cycle;Signal;HPM_P1;HPM_P2
2021/01/28 00:01:35;;;;;;;11.65;7.45;;;0.90;99.90;;;;;;5018933;28;20130;-64
2021/01/28 00:04:01;;;;;;;12.63;7.90;;;0.90;99.90;;;;;;5017522;28;20109;-63
2021/01/28 00:06:27;;;;;;;13.02;7.20;;;0.80;99.90;;;;;;5019587;28;20778;-63
2021/01/28 00:08:53;;;;;;;12.80;8.18;;;0.80;99.90;;;;;;5018180;28;20109;-63
2021/01/28 00:11:19;;;;;;;11.45;7.55;;;0.90;99.90;;;;;;5019827;28;20037;-63
2021/01/28 00:13:44;;;;;;;15.38;8.25;;;1.00;99.90;;;;;;5017213;28;20022;-63
2021/01/28 00:16:10;;;;;;;16.55;8.57;;;1.00;99.90;;;;;;5016879;28;20111;-63
2021/01/28 00:18:36;;;;;;;14.05;8.65;;;0.90;99.90;;;;;;5019966;28;20040;-63
2021/01/28 00:21:02;;;;;;;13.85;8.38;;;1.00;99.90;;;;;;5017077;28;20041;-63
2021/01/28 00:23:28;;;;;;;16.50;9.82;;;0.90;99.90;;;;;;5017173;28;20719;-63
2021/01/28 00:25:54;;;;;;;15.82;9.50;;;0.90;99.90;;;;;;5020253;28;20030;-63
2021/01/28 00:28:21;;;;;;;14.27;9.02;;;0.90;99.90;;;;;;5018743;28;20026;-64
2021/01/28 00:30:50;;;;;;;13.88;8.48;;;0.90;99.90;;;;;;5019321;28;20037;-63
2021/01/28 00:33:21;;;;;;;14.73;9.18;;;0.90;99.90;;;;;;5017772;28;20040;-63
2021/01/28 00:35:48;;;;;;;18.05;9.43;;;0.90;99.90;;;;;;5020807;28;20037;-63
2021/01/28 00:38:19;;;;;;;16.25;9.82;;;0.90;99.90;;;;;;5018910;28;20105;-63
2021/01/28 00:40:45;;;;;;;17.88;8.82;;;0.90;99.90;;;;;;5019298;28;20029;-63
2021/01/28 00:43:12;;;;;;;17.02;9.80;;;0.90;99.90;;;;;;5018106;28;20033;-63
2021/01/28 00:45:38;;;;;;;15.68;10.05;;;0.90;99.90;;;;;;5019914;28;20590;-63
2021/01/28 00:48:04;;;;;;;14.00;9.32;;;0.90;99.90;;;;;;5017628;28;20093;-63
2021/01/28 00:50:32;;;;;;;15.70;9.27;;;0.90;99.90;;;;;;5018955;28;20091;-63
2021/01/28 00:52:58;;;;;;;13.10;8.57;;;0.80;99.90;;;;;;5024535;28;20030;-63
2021/01/28 00:55:24;;;;;;;15.77;8.85;;;0.80;99.90;;;;;;5017149;28;20083;-62
2021/01/28 00:57:51;;;;;;;13.27;8.63;;;0.80;99.90;;;;;;5017746;28;20134;-63
2021/01/28 01:00:23;;;;;;;19.45;8.93;;;0.70;99.90;;;;;;5018777;28;21285;-63
2021/01/28 01:02:49;;;;;;;15.15;8.77;;;0.70;99.90;;;;;;5017009;28;20124;-63
2021/01/28 01:05:18;;;;;;;13.57;8.60;;;0.80;99.90;;;;;;5016664;28;20026;-62
2021/01/28 01:07:45;;;;;;;14.10;8.35;;;0.60;99.90;;;;;;5018235;28;20174;-62
2021/01/28 01:10:21;;;;;;;13.82;7.80;;;0.60;99.90;;;;;;5017723;28;20116;-62
2021/01/28 01:12:47;;;;;;;12.40;8.30;;;0.60;99.90;;;;;;5017826;28;20449;-63
2021/01/28 01:15:13;;;;;;;14.68;8.82;;;0.50;99.90;;;;;;5017759;28;20029;-63
2021/01/28 01:17:39;;;;;;;12.90;7.97;;;0.40;99.90;;;;;;5018196;28;20060;-62
2021/01/28 01:20:05;;;;;;;15.60;7.97;;;0.30;99.90;;;;;;5019278;28;20171;-62
2021/01/28 01:22:31;;;;;;;15.73;7.40;;;0.20;99.90;;;;;;5016674;28;20144;-62
2021/01/28 01:24:57;;;;;;;13.18;7.70;;;0.20;99.90;;;;;;5016887;28;20653;-62
2021/01/28 01:27:23;;;;;;;19.25;8.32;;;0.10;99.90;;;;;;5018445;28;20044;-63
2021/01/28 01:29:48;;;;;;;13.60;7.47;;;0.00;99.90;;;;;;5018753;28;20029;-63
2021/01/28 01:32:14;;;;;;;12.25;8.38;;;0.00;99.90;;;;;;5017234;28;20505;-62
2021/01/28 01:34:40;;;;;;;15.65;8.25;;;0.00;99.90;;;;;;5016982;28;20591;-63
2021/01/28 01:37:06;;;;;;;12.88;7.95;;;-0.10;99.90;;;;;;5016750;28;20400;-63
2021/01/28 01:39:32;;;;;;;15.00;8.18;;;-0.10;99.90;;;;;;5018460;28;20030;-63
2021/01/28 01:41:57;;;;;;;12.63;8.10;;;-0.20;99.90;;;;;;5017052;28;20029;-63
2021/01/28 01:44:23;;;;;;;13.38;8.18;;;-0.30;99.90;;;;;;5016388;28;20389;-63
2021/01/28 01:46:58;;;;;;;13.43;7.72;;;-0.20;99.90;;;;;;5014070;28;20044;-63
2021/01/28 01:49:25;;;;;;;12.60;7.78;;;-0.20;99.90;;;;;;5017092;28;20042;-63
2021/01/28 01:51:52;;;;;;;14.25;8.60;;;-0.30;99.90;;;;;;5010456;28;20618;-63
2021/01/28 01:54:33;;;;;;;13.32;8.13;;;-0.30;99.90;;;;;;5016342;28;20465;-63
2021/01/28 01:57:13;;;;;;;14.23;8.10;;;-0.30;99.90;;;;;;5017983;28;20029;-63
2021/01/28 01:59:42;;;;;;;14.68;8.55;;;-0.20;99.90;;;;;;5018736;28;20476;-63
2021/01/28 02:02:19;;;;;;;15.23;8.00;;;-0.20;99.90;;;;;;5016670;28;20037;-63
2021/01/28 02:04:48;;;;;;;12.35;7.47;;;-0.10;99.90;;;;;;5013007;28;20044;-63
2021/01/28 02:07:26;;;;;;;18.35;8.15;;;0.00;99.90;;;;;;5017950;28;20250;-63
2021/01/28 02:09:52;;;;;;;11.35;7.65;;;0.20;99.90;;;;;;5019445;28;20514;-63
2021/01/28 02:12:18;;;;;;;14.02;7.80;;;0.20;99.90;;;;;;5016630;28;20053;-63
2021/01/28 02:14:46;;;;;;;13.65;8.43;;;0.20;99.90;;;;;;5016164;28;20057;-63
2021/01/28 02:17:21;;;;;;;13.30;8.18;;;0.20;99.90;;;;;;5017043;28;20045;-63
2021/01/28 02:20:15;;;;;;;16.45;8.00;;;0.30;99.90;;;;;;5014920;28;20036;-63
2021/01/28 02:23:12;;;;;;;12.05;7.97;;;0.30;99.90;;;;;;5017211;28;20546;-63
2021/01/28 02:25:39;;;;;;;17.83;8.90;;;0.40;99.90;;;;;;5019386;28;20041;-63
2021/01/28 02:28:16;;;;;;;13.35;6.30;;;0.60;99.90;;;;;;5014862;28;20026;-63
2021/01/28 02:30:42;;;;;;;12.93;8.13;;;0.50;99.90;;;;;;5017970;28;20610;-64
2021/01/28 02:33:11;;;;;;;14.40;7.40;;;0.50;99.90;;;;;;5019911;28;20030;-64
2021/01/28 02:35:39;;;;;;;12.82;7.20;;;0.50;99.90;;;;;;5019469;28;20026;-63
2021/01/28 02:38:09;;;;;;;11.27;7.07;;;0.50;99.90;;;;;;5020748;28;20858;-64
2021/01/28 02:40:37;;;;;;;11.85;7.00;;;0.50;99.90;;;;;;5021826;28;20048;-64
2021/01/28 02:43:04;;;;;;;13.80;7.20;;;0.50;99.90;;;;;;5019563;28;20033;-63
2021/01/28 02:45:33;;;;;;;10.88;6.82;;;0.50;99.90;;;;;;5021792;28;20033;-63
2021/01/28 02:48:06;;;;;;;10.13;7.00;;;0.50;99.90;;;;;;5020625;28;20065;-63
2021/01/28 02:50:33;;;;;;;13.93;6.90;;;0.60;99.90;;;;;;5019670;28;20519;-63
2021/01/28 02:53:03;;;;;;;10.65;5.07;;;0.60;99.90;;;;;;5019314;28;20095;-63
2021/01/28 02:55:30;;;;;;;8.73;5.60;;;0.60;99.90;;;;;;5020508;28;20033;-63
2021/01/28 02:57:56;;;;;;;7.88;5.32;;;0.60;99.90;;;;;;5022696;28;20045;-63
2021/01/28 03:00:32;;;;;;;7.88;4.75;;;0.60;99.90;;;;;;5021107;28;20029;-65
2021/01/28 03:02:58;;;;;;;12.40;5.65;;;0.60;99.90;;;;;;5020480;28;20464;-63
2021/01/28 03:05:24;;;;;;;8.57;5.22;;;0.70;99.90;;;;;;5018893;28;20041;-63
2021/01/28 03:07:50;;;;;;;9.13;5.13;;;0.80;99.90;;;;;;5019772;28;20065;-64
2021/01/28 03:10:21;;;;;;;8.05;4.45;;;0.70;99.90;;;;;;5019325;28;20057;-63
2021/01/28 03:12:48;;;;;;;6.30;4.18;;;0.70;99.90;;;;;;5018251;28;20045;-64
2021/01/28 03:15:16;;;;;;;7.55;4.85;;;0.80;99.90;;;;;;5021632;28;20385;-63
2021/01/28 03:17:42;;;;;;;6.90;4.78;;;0.90;99.90;;;;;;5019575;28;20558;-63
2021/01/28 03:20:09;;;;;;;6.20;4.35;;;0.80;99.90;;;;;;5018948;28;20029;-63
2021/01/28 03:22:36;;;;;;;6.45;3.88;;;0.80;99.90;;;;;;5018837;28;20034;-63
2021/01/28 03:25:04;;;;;;;6.90;4.18;;;0.70;99.90;;;;;;5018889;28;20072;-63
2021/01/28 03:27:30;;;;;;;9.45;4.63;;;0.70;99.90;;;;;;5021319;28;20033;-63
2021/01/28 03:29:56;;;;;;;5.80;3.95;;;0.70;99.90;;;;;;5021299;28;20044;-63
2021/01/28 03:32:21;;;;;;;5.05;3.53;;;0.60;99.90;;;;;;5020610;28;20045;-64
2021/01/28 03:34:47;;;;;;;5.63;3.13;;;0.60;99.90;;;;;;5019219;28;20060;-64
2021/01/28 03:37:13;;;;;;;6.95;3.58;;;0.80;99.90;;;;;;5020746;28;20040;-64
2021/01/28 03:39:39;;;;;;;6.55;3.25;;;0.70;99.90;;;;;;5018096;28;20036;-63
2021/01/28 03:42:05;;;;;;;4.93;2.90;;;0.60;99.90;;;;;;5016882;28;20033;-63
2021/01/28 03:44:31;;;;;;;5.82;2.83;;;0.60;99.90;;;;;;5020575;28;20036;-63
2021/01/28 03:46:57;;;;;;;4.80;2.53;;;0.50;99.90;;;;;;5020893;28;20042;-64
2021/01/28 03:49:23;;;;;;;5.53;2.97;;;0.50;99.90;;;;;;5018608;28;20049;-64
2021/01/28 03:51:49;;;;;;;7.13;2.70;;;0.40;99.90;;;;;;5017422;28;20041;-63
2021/01/28 03:54:15;;;;;;;5.13;2.70;;;0.40;99.90;;;;;;5019774;28;20030;-64
2021/01/28 03:56:41;;;;;;;6.88;2.72;;;0.40;99.90;;;;;;5018763;28;20038;-63
2021/01/28 03:59:06;;;;;;;4.50;2.22;;;0.40;99.90;;;;;;5020613;28;20133;-64
2021/01/28 04:01:33;;;;;;;3.35;2.20;;;0.40;99.90;;;;;;5018779;28;20021;-64
2021/01/28 04:03:59;;;;;;;4.90;2.15;;;0.30;99.90;;;;;;5017579;28;20038;-63
2021/01/28 04:06:25;;;;;;;3.90;2.95;;;0.30;99.90;;;;;;5016983;28;20055;-63
2021/01/28 04:08:51;;;;;;;4.43;2.30;;;0.30;99.90;;;;;;5020246;28;20037;-65
2021/01/28 04:11:16;;;;;;;4.65;1.90;;;0.30;99.90;;;;;;5020690;28;20404;-64
2021/01/28 04:13:42;;;;;;;6.53;2.45;;;0.30;99.90;;;;;;5016524;28;20040;-64
2021/01/28 04:16:08;;;;;;;4.10;1.77;;;0.20;99.90;;;;;;5017600;28;20051;-64
2021/01/28 04:18:34;;;;;;;2.50;1.60;;;0.10;99.90;;;;;;5020305;28;20041;-64
2021/01/28 04:21:00;;;;;;;4.68;2.30;;;0.10;99.90;;;;;;5018337;28;20036;-64
2021/01/28 04:23:25;;;;;;;1.80;1.48;;;0.00;99.90;;;;;;5020021;28;20029;-64
2021/01/28 04:25:51;;;;;;;4.22;1.75;;;-0.10;99.90;;;;;;5020131;28;20029;-64
2021/01/28 04:28:17;;;;;;;3.50;1.83;;;-0.20;99.90;;;;;;5017759;28;20025;-64
2021/01/28 04:30:43;;;;;;;4.18;1.42;;;-0.30;99.90;;;;;;5020011;28;20562;-64
2021/01/28 04:33:09;;;;;;;3.63;1.90;;;-0.40;99.90;;;;;;5019435;28;20084;-64
2021/01/28 04:35:35;;;;;;;2.60;1.30;;;-0.40;99.90;;;;;;5019210;28;20084;-64
2021/01/28 04:38:01;;;;;;;3.45;1.60;;;-0.50;99.90;;;;;;5011564;28;20048;-64
2021/01/28 04:40:29;;;;;;;4.47;1.27;;;-0.50;99.90;;;;;;5018113;28;20060;-63
2021/01/28 04:42:58;;;;;;;3.03;1.42;;;-0.50;99.90;;;;;;5016368;28;20047;-64
2021/01/28 04:45:26;;;;;;;5.15;1.70;;;-0.60;99.90;;;;;;5018880;28;20034;-64
2021/01/28 04:47:58;;;;;;;3.15;1.40;;;-0.70;99.90;;;;;;5017361;28;20053;-64
2021/01/28 04:50:32;;;;;;;3.58;1.85;;;-0.80;99.90;;;;;;5016723;28;20116;-63
2021/01/28 04:53:04;;;;;;;4.03;2.30;;;-0.80;99.90;;;;;;5012716;28;20126;-64
2021/01/28 04:55:34;;;;;;;1.90;1.20;;;-0.80;99.90;;;;;;5016706;28;20051;-64
2021/01/28 04:58:00;;;;;;;4.13;2.05;;;-0.80;99.90;;;;;;5015583;28;20045;-64
2021/01/28 05:00:26;;;;;;;5.20;1.58;;;-0.80;99.90;;;;;;5011928;28;20101;-63
2021/01/28 05:02:59;;;;;;;3.00;1.88;;;-0.80;99.90;;;;;;5010407;28;20033;-64
2021/01/28 05:05:25;;;;;;;5.72;1.80;;;-1.00;99.90;;;;;;5011667;28;20026;-65
2021/01/28 05:07:51;;;;;;;3.60;1.48;;;-0.90;99.90;;;;;;4991329;28;20034;-65
2021/01/28 05:10:43;;;;;;;4.22;1.50;;;-1.00;99.90;;;;;;5018445;28;20029;-65
2021/01/28 05:13:09;;;;;;;3.67;1.65;;;-1.00;99.90;;;;;;5007886;28;20125;-65
2021/01/28 05:15:41;;;;;;;3.67;1.85;;;-0.90;99.90;;;;;;5015420;28;20071;-65
2021/01/28 05:18:09;;;;;;;4.70;1.77;;;-1.00;99.90;;;;;;5018179;28;20039;-65
2021/01/28 05:20:36;;;;;;;5.78;2.30;;;-0.90;99.90;;;;;;5018715;28;20025;-66
2021/01/28 05:23:11;;;;;;;4.45;1.80;;;-1.00;99.90;;;;;;5014637;28;20037;-65
2021/01/28 05:25:42;;;;;;;4.43;1.83;;;-0.90;99.90;;;;;;5016369;28;20694;-65
2021/01/28 05:28:29;;;;;;;4.93;2.13;;;-1.00;99.90;;;;;;5013630;28;20591;-65
2021/01/28 05:30:58;;;;;;;5.30;1.90;;;-1.10;99.90;;;;;;5018042;28;20047;-64
2021/01/28 05:33:40;;;;;;;3.67;1.50;;;-1.20;99.90;;;;;;5018452;28;20032;-65
2021/01/28 05:36:11;;;;;;;3.50;1.75;;;-1.20;99.90;;;;;;5013120;28;20029;-65
2021/01/28 05:38:46;;;;;;;5.15;1.60;;;-1.30;99.90;;;;;;5016592;28;20025;-65
2021/01/28 05:41:24;;;;;;;4.85;1.90;;;-1.30;99.90;;;;;;5012047;28;20655;-65
2021/01/28 05:43:50;;;;;;;5.40;1.88;;;-1.30;99.90;;;;;;5007527;28;20037;-65
2021/01/28 05:46:30;;;;;;;6.15;2.00;;;-1.30;99.90;;;;;;5015477;28;20098;-64
2021/01/28 05:49:01;;;;;;;6.63;2.13;;;-1.30;99.90;;;;;;5015861;28;20073;-65
2021/01/28 05:51:39;;;;;;;9.25;2.40;;;-1.30;99.90;;;;;;5016679;28;20042;-64
2021/01/28 05:54:22;;;;;;;7.25;2.60;;;-1.40;99.90;;;;;;5015165;28;20029;-64
2021/01/28 05:57:09;;;;;;;4.65;2.53;;;-1.40;99.90;;;;;;5015524;28;20028;-64
2021/01/28 06:00:02;;;;;;;8.65;2.83;;;-1.50;99.90;;;;;;5016747;28;20029;-65
2021/01/28 06:02:55;;;;;;;4.53;2.20;;;-1.50;99.90;;;;;;5017821;28;20037;-64
2021/01/28 06:05:29;;;;;;;3.75;2.28;;;-1.40;99.90;;;;;;5016261;28;20088;-65
2021/01/28 06:08:07;;;;;;;4.72;2.00;;;-1.40;99.90;;;;;;5017148;28;20064;-65
2021/01/28 06:11:04;;;;;;;7.63;2.33;;;-1.40;99.90;;;;;;5018810;28;20091;-65
2021/01/28 06:13:45;;;;;;;5.13;2.53;;;-1.60;99.90;;;;;;5014616;28;20029;-65
2021/01/28 06:16:21;;;;;;;7.30;2.83;;;-1.70;99.90;;;;;;5017746;28;20130;-65
2021/01/28 06:19:09;;;;;;;3.83;2.35;;;-1.80;99.90;;;;;;5019159;28;20037;-65
2021/01/28 06:21:40;;;;;;;4.72;2.25;;;-1.80;99.90;;;;;;5018906;28;20515;-66
2021/01/28 06:24:28;;;;;;;8.52;2.22;;;-1.80;99.90;;;;;;5018616;28;20720;-65
2021/01/28 06:27:17;;;;;;;4.55;2.75;;;-1.80;99.90;;;;;;5018863;28;20459;-65
2021/01/28 06:30:11;;;;;;;6.63;2.72;;;-1.80;99.90;;;;;;5016695;28;20389;-65
2021/01/28 06:33:12;;;;;;;5.82;2.88;;;-1.80;99.90;;;;;;5018590;28;20053;-65
2021/01/28 06:35:38;;;;;;;5.25;2.33;;;-1.80;99.90;;;;;;5017876;28;20148;-65
2021/01/28 06:38:29;;;;;;;13.07;5.18;;;-1.90;99.90;;;;;;5016311;28;20022;-65
2021/01/28 06:41:00;;;;;;;7.72;3.63;;;-1.90;99.90;;;;;;5018678;28;20034;-65
2021/01/28 06:44:07;;;;;;;11.35;5.30;;;-2.00;99.90;;;;;;5016540;28;20036;-66
2021/01/28 06:46:48;;;;;;;9.98;4.13;;;-2.00;99.90;;;;;;5007201;28;20049;-63
2021/01/28 06:49:25;;;;;;;10.48;4.88;;;-2.00;99.90;;;;;;5016479;28;20033;-64
2021/01/28 06:52:22;;;;;;;7.93;3.30;;;-2.10;99.90;;;;;;5015873;28;20057;-65
2021/01/28 06:55:10;;;;;;;6.22;3.53;;;-2.00;99.90;;;;;;5017466;28;20037;-64
2021/01/28 06:57:51;;;;;;;6.65;3.17;;;-2.20;99.90;;;;;;5018652;28;20041;-65
2021/01/28 07:00:47;;;;;;;7.20;3.20;;;-2.20;99.90;;;;;;5018594;28;20096;-65
2021/01/28 07:03:30;;;;;;;5.70;2.80;;;-2.30;99.90;;;;;;5016835;28;20048;-64
2021/01/28 07:05:59;;;;;;;6.38;3.60;;;-2.30;99.90;;;;;;5017263;28;20033;-64
2021/01/28 07:08:51;;;;;;;6.35;2.88;;;-2.30;99.90;;;;;;5016844;28;20109;-65
2021/01/28 07:11:37;;;;;;;6.50;2.83;;;-2.30;99.90;;;;;;5018132;28;20048;-65
2021/01/28 07:14:04;;;;;;;6.65;3.15;;;-2.40;99.90;;;;;;5017823;28;20053;-64
2021/01/28 07:16:39;;;;;;;6.60;3.00;;;-2.30;99.90;;;;;;5019379;28;20035;-64
2021/01/28 07:19:18;;;;;;;11.35;2.72;;;-2.30;99.90;;;;;;5022322;28;20024;-65
2021/01/28 07:21:48;;;;;;;5.03;2.60;;;-2.30;99.90;;;;;;5021518;28;20135;-64
2021/01/28 07:24:35;;;;;;;5.85;3.13;;;-2.30;99.90;;;;;;5021694;28;20466;-65
2021/01/28 07:27:09;;;;;;;6.00;3.22;;;-2.30;99.90;;;;;;5021337;28;20037;-65
2021/01/28 07:29:45;;;;;;;7.60;3.53;;;-2.40;99.90;;;;;;5021960;28;20104;-64
2021/01/28 07:32:22;;;;;;;5.57;3.38;;;-2.40;99.90;;;;;;5021912;28;20072;-65
2021/01/28 07:35:32;;;;;;;7.88;3.67;;;-2.40;99.90;;;;;;5021048;28;20029;-64
2021/01/28 07:38:30;;;;;;;7.28;3.55;;;-2.40;99.90;;;;;;5020325;28;20033;-64
2021/01/28 07:41:08;;;;;;;9.13;3.05;;;-2.50;99.90;;;;;;5021751;28;20406;-64
2021/01/28 07:43:38;;;;;;;7.75;3.90;;;-2.40;99.90;;;;;;5019475;28;20030;-64
2021/01/28 07:46:12;;;;;;;13.52;6.80;;;-2.50;99.90;;;;;;5015422;28;20037;-64
2021/01/28 07:48:40;;;;;;;17.02;7.13;;;-2.50;99.90;;;;;;5021404;28;20053;-64
2021/01/28 07:51:29;;;;;;;15.27;6.75;;;-2.40;99.90;;;;;;5021858;28;20132;-64
2021/01/28 07:53:55;;;;;;;16.48;6.90;;;-2.30;99.90;;;;;;5020666;28;20629;-64
2021/01/28 07:56:36;;;;;;;16.45;6.72;;;-2.40;99.90;;;;;;5020281;28;20025;-64
2021/01/28 07:59:35;;;;;;;16.45;8.18;;;-2.30;99.90;;;;;;5021651;28;20029;-64
2021/01/28 08:02:17;;;;;;;17.88;7.75;;;-2.30;99.90;;;;;;5022102;28;20037;-64
2021/01/28 08:04:57;;;;;;;17.02;8.02;;;-2.10;99.90;;;;;;5020223;28;20072;-64
2021/01/28 08:07:28;;;;;;;16.95;8.25;;;-2.20;99.90;;;;;;5021195;28;20030;-64
2021/01/28 08:09:57;;;;;;;18.15;8.73;;;-2.20;99.90;;;;;;5021265;28;20022;-64
2021/01/28 08:12:28;;;;;;;14.95;7.28;;;-2.20;99.90;;;;;;5018794;28;20045;-64
2021/01/28 08:14:55;;;;;;;14.05;6.03;;;-2.20;99.90;;;;;;5020382;28;20108;-64
2021/01/28 08:17:41;;;;;;;11.65;5.38;;;-2.10;99.90;;;;;;5021401;28;20041;-64
2021/01/28 08:20:13;;;;;;;13.77;6.55;;;-2.00;99.90;;;;;;5020214;28;20037;-63
2021/01/28 08:23:01;;;;;;;16.23;6.22;;;-2.00;99.90;;;;;;5017863;28;20053;-65
2021/01/28 08:25:32;;;;;;;12.88;5.43;;;-1.80;99.90;;;;;;5020901;28;20036;-64
2021/01/28 08:28:15;;;;;;;9.82;5.25;;;-1.70;99.90;;;;;;5019032;28;20374;-63
2021/01/28 08:30:42;;;;;;;12.40;5.40;;;-1.60;99.90;;;;;;5015889;28;20029;-64
2021/01/28 08:33:21;;;;;;;11.25;5.25;;;-1.60;99.90;;;;;;5019370;28;20044;-64
2021/01/28 08:35:51;;;;;;;8.85;4.20;;;-1.50;99.90;;;;;;5020956;28;20025;-64
2021/01/28 08:38:27;;;;;;;10.32;4.13;;;-1.50;99.90;;;;;;5017113;28;20083;-64
2021/01/28 08:41:15;;;;;;;10.75;4.30;;;-1.50;99.90;;;;;;5021036;28;20029;-64
2021/01/28 08:43:43;;;;;;;8.43;4.10;;;-1.50;99.90;;;;;;5019232;28;20082;-65
2021/01/28 08:46:19;;;;;;;12.25;5.00;;;-1.50;99.90;;;;;;5018426;28;20037;-65
2021/01/28 08:48:46;;;;;;;9.63;4.47;;;-1.50;99.90;;;;;;5020075;28;20132;-64
2021/01/28 08:51:23;;;;;;;10.98;4.68;;;-1.30;99.90;;;;;;5019450;28;20457;-64
2021/01/28 08:54:02;;;;;;;11.30;5.70;;;-1.20;99.90;;;;;;5016786;28;20057;-63
2021/01/28 08:56:38;;;;;;;10.35;4.82;;;-1.10;99.90;;;;;;5016147;28;20272;-63
2021/01/28 08:59:11;;;;;;;9.80;3.97;;;-1.00;99.90;;;;;;5019970;28;20750;-65
2021/01/28 09:01:44;;;;;;;12.10;5.22;;;-0.90;99.90;;;;;;5019236;28;20029;-64
2021/01/28 09:04:31;;;;;;;12.73;5.68;;;-0.90;99.90;;;;;;5018736;28;20135;-64
2021/01/28 09:06:58;;;;;;;15.93;5.93;;;-0.90;99.90;;;;;;5020265;28;20053;-64
2021/01/28 09:09:32;;;;;;;15.75;5.38;;;-0.80;99.90;;;;;;5017665;28;20302;-64
2021/01/28 09:12:27;;;;;;;16.75;6.15;;;-0.80;99.90;;;;;;5016152;28;20045;-65
2021/01/28 09:15:30;;;;;;;13.55;6.03;;;-0.60;99.90;;;;;;5018256;28;20025;-64
2021/01/28 09:18:06;;;;;;;9.98;4.45;;;-0.50;99.90;;;;;;5019905;28;20259;-64
2021/01/28 09:20:35;;;;;;;9.43;4.10;;;-0.40;99.90;;;;;;5018189;28;20181;-64
2021/01/28 09:23:10;;;;;;;12.07;4.57;;;-0.40;99.90;;;;;;5018995;28;20049;-64
2021/01/28 09:25:37;;;;;;;10.95;4.13;;;-0.40;99.90;;;;;;5018328;28;20079;-64
2021/01/28 09:28:15;;;;;;;8.95;4.22;;;-0.30;99.90;;;;;;5016271;28;21393;-64
2021/01/28 09:30:44;;;;;;;12.63;4.10;;;-0.20;99.90;;;;;;5016900;28;20247;-64
2021/01/28 09:33:31;;;;;;;20.23;5.17;;;-0.20;99.90;;;;;;5017768;28;20578;-63
2021/01/28 09:36:10;;;;;;;9.65;4.38;;;-0.10;99.90;;;;;;5016278;28;20578;-64
2021/01/28 09:38:38;;;;;;;10.60;4.93;;;0.00;99.90;;;;;;5019035;28;20522;-63
2021/01/28 09:41:18;;;;;;;9.85;4.50;;;0.10;99.90;;;;;;5018865;28;20052;-64
2021/01/28 09:43:44;;;;;;;10.10;4.80;;;0.50;99.90;;;;;;5019292;28;20072;-63
2021/01/28 09:46:22;;;;;;;7.60;4.15;;;1.10;99.90;;;;;;5017040;28;20021;-63
2021/01/28 09:48:51;;;;;;;10.40;4.38;;;1.30;99.90;;;;;;5012889;28;20088;-64
2021/01/28 09:51:30;;;;;;;10.53;4.40;;;1.20;99.90;;;;;;5013852;28;20489;-64
2021/01/28 09:54:11;;;;;;;12.02;4.22;;;1.30;99.90;;;;;;5017248;28;20033;-63
2021/01/28 09:56:38;;;;;;;8.98;4.03;;;1.30;99.90;;;;;;5018735;28;20112;-64
2021/01/28 09:59:04;;;;;;;10.10;4.18;;;1.40;99.90;;;;;;5017358;28;20072;-64
2021/01/28 10:01:30;;;;;;;15.77;4.57;;;1.50;99.90;;;;;;5017729;28;20040;-64
2021/01/28 10:03:56;;;;;;;8.55;3.55;;;2.00;99.90;;;;;;5014629;28;20116;-63
2021/01/28 10:06:22;;;;;;;6.50;3.35;;;2.50;99.90;;;;;;5015111;28;20053;-63
2021/01/28 10:08:48;;;;;;;12.05;4.57;;;2.70;99.90;;;;;;5015390;28;20107;-63
2021/01/28 10:11:15;;;;;;;9.73;3.58;;;2.70;99.90;;;;;;5016745;28;20029;-64
2021/01/28 10:13:42;;;;;;;11.23;3.95;;;2.80;99.90;;;;;;5017802;28;20044;-64
2021/01/28 10:16:08;;;;;;;8.95;3.85;;;3.10;99.90;;;;;;5010057;28;20098;-64
2021/01/28 10:18:34;;;;;;;11.07;3.95;;;3.20;99.90;;;;;;5015095;28;20075;-64
2021/01/28 10:21:00;;;;;;;14.15;5.88;;;3.50;99.90;;;;;;5013346;28;20120;-64
2021/01/28 10:23:26;;;;;;;11.93;6.00;;;3.70;99.90;;;;;;5015415;28;20103;-63
2021/01/28 10:25:53;;;;;;;9.15;4.78;;;4.00;99.90;;;;;;5015962;28;20029;-64
2021/01/28 10:28:19;;;;;;;12.50;5.93;;;4.60;99.90;;;;;;5014948;28;20017;-64
2021/01/28 10:30:44;;;;;;;11.63;6.50;;;5.30;99.90;;;;;;5022441;28;20590;-64
2021/01/28 10:33:11;;;;;;;16.08;5.65;;;5.60;99.90;;;;;;5014832;28;20041;-64
2021/01/28 10:35:37;;;;;;;15.60;6.72;;;6.10;99.90;;;;;;5018185;28;20033;-64
2021/01/28 10:38:07;;;;;;;21.02;7.22;;;6.40;99.90;;;;;;5014859;28;20033;-64
2021/01/28 10:40:35;;;;;;;13.57;6.25;;;7.40;99.90;;;;;;5013903;28;20476;-64
2021/01/28 10:43:04;;;;;;;12.25;5.45;;;9.10;99.90;;;;;;5013071;28;20053;-65
2021/01/28 10:45:36;;;;;;;11.38;5.63;;;10.70;99.90;;;;;;5015671;28;20030;-64
2021/01/28 10:48:02;;;;;;;10.73;4.65;;;12.10;99.90;;;;;;5015724;28;20168;-64
2021/01/28 10:50:29;;;;;;;10.10;4.43;;;12.60;99.90;;;;;;5014417;28;20113;-65
2021/01/28 10:52:56;;;;;;;8.82;4.03;;;13.10;99.90;;;;;;5018562;28;20367;-64
2021/01/28 10:55:24;;;;;;;7.35;3.40;;;13.90;98.10;;;;;;5020063;28;20030;-64
2021/01/28 10:57:49;;;;;;;7.43;3.45;;;14.30;97.00;;;;;;5019683;28;20026;-64
2021/01/28 11:00:17;;;;;;;8.93;3.38;;;14.60;92.60;;;;;;5019541;28;20040;-64
2021/01/28 11:02:43;;;;;;;8.85;4.20;;;14.70;93.60;;;;;;5019846;28;20848;-64
2021/01/28 11:05:15;;;;;;;6.25;2.63;;;14.70;94.60;;;;;;5021485;28;20040;-64
2021/01/28 11:07:41;;;;;;;8.07;2.90;;;15.00;93.60;;;;;;5019630;28;20730;-65
2021/01/28 11:10:08;;;;;;;7.28;2.67;;;15.40;92.80;;;;;;5018714;28;20037;-65
2021/01/28 11:12:34;;;;;;;9.77;2.50;;;15.40;91.60;;;;;;5021009;28;20907;-65
2021/01/28 11:15:01;;;;;;;5.65;2.15;;;14.10;93.00;;;;;;5020583;28;20068;-65
2021/01/28 11:17:28;;;;;;;7.75;2.90;;;14.70;92.10;;;;;;5021058;28;20060;-64
2021/01/28 11:19:53;;;;;;;6.18;2.88;;;14.60;92.80;;;;;;5019175;28;20994;-65
2021/01/28 11:22:19;;;;;;;5.13;2.75;;;15.10;91.90;;;;;;5018882;28;20729;-65
2021/01/28 11:24:47;;;;;;;5.47;2.53;;;14.20;91.40;;;;;;5019031;28;20029;-65
2021/01/28 11:27:13;;;;;;;4.32;1.75;;;14.30;93.10;;;;;;5019934;28;20018;-65
2021/01/28 11:29:39;;;;;;;6.60;2.92;;;14.20;94.10;;;;;;5019344;28;20385;-65
2021/01/28 11:32:04;;;;;;;6.13;2.95;;;13.90;93.10;;;;;;5019718;28;20056;-65
2021/01/28 11:34:31;;;;;;;5.15;2.72;;;14.50;93.90;;;;;;5018420;28;20026;-65
2021/01/28 11:36:57;;;;;;;4.65;2.20;;;15.50;91.00;;;;;;5018498;28;20669;-65
2021/01/28 11:39:22;;;;;;;4.70;1.70;;;14.90;84.50;;;;;;5019594;28;20069;-65
2021/01/28 11:41:48;;;;;;;4.72;1.88;;;14.60;91.90;;;;;;5019298;28;20373;-65
2021/01/28 11:44:14;;;;;;;5.97;2.30;;;14.90;88.50;;;;;;5018361;28;20464;-65
2021/01/28 11:46:40;;;;;;;6.57;2.63;;;14.40;83.00;;;;;;5018988;28;20704;-65
2021/01/28 11:49:06;;;;;;;6.47;2.42;;;14.10;90.30;;;;;;5014965;28;20366;-65
2021/01/28 11:51:31;;;;;;;5.13;2.30;;;14.60;90.00;;;;;;5019341;28;20543;-65
2021/01/28 11:53:57;;;;;;;3.35;2.10;;;14.70;90.20;;;;;;5018938;28;21257;-66
2021/01/28 11:56:23;;;;;;;3.65;1.95;;;14.60;91.50;;;;;;5021706;28;20032;-65
2021/01/28 11:58:49;;;;;;;6.65;2.58;;;14.10;92.50;;;;;;5020038;28;20030;-66
2021/01/28 12:01:15;;;;;;;5.50;2.13;;;13.50;93.60;;;;;;5021881;28;20041;-65
2021/01/28 12:03:41;;;;;;;6.53;2.55;;;13.50;94.20;;;;;;5018920;28;20048;-65
2021/01/28 12:06:07;;;;;;;9.07;2.30;;;13.70;92.80;;;;;;5020061;28;20033;-65
2021/01/28 12:08:33;;;;;;;4.70;1.58;;;13.00;93.70;;;;;;5019840;28;20067;-66
2021/01/28 12:10:59;;;;;;;5.00;2.28;;;11.90;93.70;;;;;;5015267;28;20039;-65
2021/01/28 12:13:25;;;;;;;8.90;2.10;;;10.00;97.50;;;;;;5017609;28;20589;-65
2021/01/28 12:15:50;;;;;;;7.05;2.38;;;8.20;99.90;;;;;;5019431;28;20033;-64
2021/01/28 12:18:16;;;;;;;5.65;1.63;;;8.60;99.90;;;;;;5019811;28;20446;-64
2021/01/28 12:20:42;;;;;;;6.28;2.13;;;9.10;99.90;;;;;;5021681;28;20037;-64
2021/01/28 12:23:08;;;;;;;8.73;2.20;;;8.60;99.90;;;;;;5020182;28;20100;-64
2021/01/28 12:25:34;;;;;;;3.33;2.05;;;8.10;99.90;;;;;;5020606;28;20063;-64
2021/01/28 12:28:00;;;;;;;3.92;1.98;;;7.40;99.90;;;;;;5019607;28;20665;-65
2021/01/28 12:30:26;;;;;;;5.55;1.40;;;7.40;99.90;;;;;;5020071;28;20091;-64
2021/01/28 12:32:52;;;;;;;4.85;1.65;;;7.70;99.90;;;;;;5017468;28;20041;-65
2021/01/28 12:35:20;;;;;;;4.47;1.35;;;7.10;99.90;;;;;;5019029;28;20477;-64
2021/01/28 12:37:47;;;;;;;5.18;1.88;;;6.20;99.90;;;;;;5019297;28;20029;-65
2021/01/28 12:40:16;;;;;;;6.93;1.92;;;5.50;99.90;;;;;;5021260;28;20025;-64
2021/01/28 12:42:42;;;;;;;4.35;1.33;;;4.90;99.90;;;;;;5020584;28;20040;-64
2021/01/28 12:45:09;;;;;;;6.70;1.45;;;4.40;99.90;;;;;;5018997;28;20117;-63
2021/01/28 12:47:35;;;;;;;5.00;1.52;;;3.80;99.90;;;;;;5015054;28;20049;-64
2021/01/28 12:50:01;;;;;;;6.68;2.05;;;3.60;99.90;;;;;;5012809;28;20061;-64
2021/01/28 12:52:27;;;;;;;9.32;2.60;;;3.30;99.90;;;;;;5013572;28;20048;-64
2021/01/28 12:54:53;;;;;;;7.32;2.03;;;3.20;99.90;;;;;;5019422;28;20758;-64
2021/01/28 12:57:19;;;;;;;9.13;2.38;;;3.40;99.90;;;;;;5017601;28;20047;-63
2021/01/28 12:59:45;;;;;;;4.28;1.50;;;3.60;99.90;;;;;;5019315;28;20666;-64
2021/01/28 13:02:12;;;;;;;4.57;1.52;;;4.50;99.90;;;;;;5019471;28;20060;-64
2021/01/28 13:04:38;;;;;;;4.22;1.05;;;6.00;99.90;;;;;;5015527;28;20669;-64
2021/01/28 13:07:05;;;;;;;4.03;1.70;;;6.90;99.90;;;;;;5012940;28;20034;-63
2021/01/28 13:09:31;;;;;;;8.32;1.65;;;6.10;99.90;;;;;;5000803;28;20017;-64